Time;durP1;ratioP1;P1;durP2;ratioP2;P2;SDS_P1;SDS_P2;PMS_P1;PMS_P2;Temp;Humidity;BMP_temperature;BMP_pressure;BME280_temperature;BME280_humidity;BME280_pressure;Samples;Min_cycle;Max_cycle;Signal;HPM_P1;HPM_P2
2023/04/20 00:01:46;;;;;;;1.75;0.73;;;;;;;10.70;57.55;101553.50;5060361;28;20037;-53
2023/04/20 00:04:14;;;;;;;0.30;0.28;;;;;;;10.90;57.14;101564.19;5056565;28;20124;-54
2023/04/20 00:06:41;;;;;;;0.60;0.47;;;;;;;10.88;56.48;101561.06;5049737;28;20029;-57
2023/04/20 00:09:07;;;;;;;0.60;0.40;;;;;;;10.68;56.45;101553.81;5075693;28;20112;-55
2023/04/20 00:11:33;;;;;;;0.60;0.30;;;;;;;10.68;58.17;101556.50;5069401;28;20033;-56
2023/04/20 00:13:58;;;;;;;0.20;0.20;;;;;;;10.67;61.31;101554.94;5068910;28;20101;-55
2023/04/20 00:16:24;;;;;;;0.32;0.32;;;;;;;10.84;60.38;101573.63;5053052;28;20130;-57
2023/04/20 00:18:50;;;;;;;0.38;0.20;;;;;;;10.83;60.58;101561.28;5068539;28;20029;-54
2023/04/20 00:21:15;;;;;;;0.20;0.20;;;;;;;10.71;59.88;101569.31;5069373;28;20021;-56
2023/04/20 00:23:41;;;;;;;0.20;0.20;;;;;;;10.59;60.75;101557.72;5063891;28;20035;-56
2023/04/20 00:26:07;;;;;;;0.30;0.30;;;;;;;10.44;62.83;101558.34;5068006;28;20166;-54
2023/04/20 00:28:32;;;;;;;0.13;0.13;;;;;;;10.41;64.18;101556.31;5069065;28;20119;-56
2023/04/20 00:30:58;;;;;;;0.30;0.30;;;;;;;10.52;64.38;101557.47;5064827;28;20028;-55
2023/04/20 00:33:24;;;;;;;0.52;0.30;;;;;;;10.55;64.59;101552.22;5067772;28;20024;-51
2023/04/20 00:35:53;;;;;;;0.20;0.20;;;;;;;10.56;66.02;101548.41;5071783;28;20415;-52
2023/04/20 00:38:18;;;;;;;0.35;0.30;;;;;;;10.45;67.71;101539.16;5053922;28;20025;-51
2023/04/20 00:40:47;;;;;;;0.30;0.30;;;;;;;10.51;69.29;101540.53;5064022;28;20054;-52
2023/04/20 00:43:13;;;;;;;2.45;0.60;;;;;;;10.49;70.20;101532.00;5055062;28;20044;-55
2023/04/20 00:45:39;;;;;;;0.45;0.40;;;;;;;10.59;70.13;101526.19;5073316;28;20032;-50
2023/04/20 00:48:06;;;;;;;0.20;0.20;;;;;;;10.48;71.75;101519.66;5053560;28;20025;-54
2023/04/20 00:50:33;;;;;;;2.33;0.63;;;;;;;10.48;72.38;101522.34;5062278;28;20119;-54
2023/04/20 00:52:59;;;;;;;0.50;0.50;;;;;;;10.49;72.34;101523.16;5061734;28;20025;-52
2023/04/20 00:55:26;;;;;;;1.33;0.70;;;;;;;10.30;73.65;101522.84;5076893;28;20398;-52
2023/04/20 00:57:51;;;;;;;0.38;0.38;;;;;;;10.34;74.06;101507.59;5069403;28;20032;-52
2023/04/20 01:00:17;;;;;;;0.20;0.20;;;;;;;10.37;73.85;101510.44;5069181;28;20024;-53
2023/04/20 01:02:42;;;;;;;0.88;0.45;;;;;;;10.30;75.45;101520.16;5070604;28;20928;-54
2023/04/20 01:05:09;;;;;;;1.00;0.85;;;;;;;10.21;75.21;101524.81;5070870;28;20032;-53
2023/04/20 01:07:35;;;;;;;0.38;0.38;;;;;;;10.21;75.66;101505.97;5071179;28;20055;-55
2023/04/20 01:10:01;;;;;;;0.90;0.30;;;;;;;10.28;75.91;101503.56;5060334;28;20032;-57
2023/04/20 01:12:26;;;;;;;0.35;0.35;;;;;;;10.36;75.19;101492.69;5067972;28;20072;-52
2023/04/20 01:14:52;;;;;;;0.28;0.28;;;;;;;10.33;75.43;101498.75;5069891;28;20658;-57
2023/04/20 01:17:19;;;;;;;3.90;0.60;;;;;;;10.26;75.50;101495.78;5069712;28;20032;-53
2023/04/20 01:19:48;;;;;;;0.75;0.55;;;;;;;10.31;76.27;101509.06;5053429;28;20606;-55
2023/04/20 01:22:19;;;;;;;0.20;0.20;;;;;;;10.36;76.79;101510.75;5062345;28;20039;-52
2023/04/20 01:24:44;;;;;;;0.30;0.30;;;;;;;10.32;76.72;101505.25;5083473;28;20646;-54
2023/04/20 01:27:11;;;;;;;0.90;0.43;;;;;;;10.29;76.62;101491.66;5064091;28;20104;-53
2023/04/20 01:29:39;;;;;;;0.43;0.43;;;;;;;10.36;76.72;101502.66;5062395;28;20040;-57
2023/04/20 01:32:05;;;;;;;0.80;0.35;;;;;;;10.48;75.81;101498.13;5053389;28;20106;-54
2023/04/20 01:34:31;;;;;;;0.75;0.45;;;;;;;10.43;76.00;101502.94;5065036;28;20094;-53
2023/04/20 01:36:57;;;;;;;0.50;0.50;;;;;;;10.43;76.44;101502.94;5058078;28;20459;-53
2023/04/20 01:39:23;;;;;;;0.50;0.50;;;;;;;10.46;76.30;101494.97;5064204;28;20032;-55
2023/04/20 01:41:48;;;;;;;1.42;0.73;;;;;;;10.53;76.31;101489.06;5059049;28;20020;-55
2023/04/20 01:44:16;;;;;;;0.50;0.47;;;;;;;10.47;76.48;101487.69;5082403;28;20037;-55
2023/04/20 01:46:42;;;;;;;0.45;0.45;;;;;;;10.49;76.58;101493.53;5057072;28;20395;-53
2023/04/20 01:49:08;;;;;;;0.50;0.50;;;;;;;10.48;76.83;101479.25;5054501;28;20031;-55
2023/04/20 01:51:36;;;;;;;0.28;0.28;;;;;;;10.53;76.44;101468.25;5057304;28;20391;-57
2023/04/20 01:54:01;;;;;;;0.38;0.30;;;;;;;10.50;76.63;101471.63;5065088;28;20402;-56
2023/04/20 01:56:47;;;;;;;0.57;0.57;;;;;;;10.58;76.14;101481.53;5059725;28;20021;-57
2023/04/20 01:59:14;;;;;;;0.90;0.90;;;;;;;10.46;76.14;101470.72;5038965;28;20059;-57
2023/04/20 02:01:40;;;;;;;0.70;0.40;;;;;;;10.45;76.05;101466.44;5047358;28;20495;-56
2023/04/20 02:04:05;;;;;;;1.45;0.52;;;;;;;10.41;75.57;101476.34;5062324;28;20045;-54
2023/04/20 02:06:31;;;;;;;1.17;0.47;;;;;;;10.39;75.38;101467.81;5064732;28;20123;-52
2023/04/20 02:08:58;;;;;;;0.20;0.20;;;;;;;10.39;75.60;101453.56;5056004;28;20178;-54
2023/04/20 02:11:26;;;;;;;0.32;0.32;;;;;;;10.43;75.17;101441.75;5050932;28;20135;-57
2023/04/20 02:13:52;;;;;;;0.50;0.40;;;;;;;10.42;75.11;101440.22;5064787;28;20126;-54
2023/04/20 02:16:18;;;;;;;1.25;0.43;;;;;;;10.42;74.78;101442.09;5045909;28;20037;-57
2023/04/20 02:18:44;;;;;;;5.88;0.70;;;;;;;10.37;74.94;101445.03;5055634;28;20098;-55
2023/04/20 02:21:10;;;;;;;1.38;0.65;;;;;;;10.37;74.50;101434.25;5047794;28;20059;-57
2023/04/20 02:23:36;;;;;;;0.17;0.15;;;;;;;10.38;74.48;101439.28;5057612;28;20515;-57
2023/04/20 02:26:01;;;;;;;0.40;0.40;;;;;;;10.41;74.07;101452.09;5045338;28;20041;-56
2023/04/20 02:28:27;;;;;;;0.25;0.25;;;;;;;10.39;73.57;101440.88;5030461;28;20044;-56
2023/04/20 02:30:52;;;;;;;1.30;0.55;;;;;;;10.42;73.49;101431.34;5050135;28;20123;-55
2023/04/20 02:33:19;;;;;;;0.90;0.60;;;;;;;10.39;73.12;101430.13;5075577;28;20067;-55
2023/04/20 02:35:45;;;;;;;0.65;0.60;;;;;;;10.37;72.95;101431.56;5061099;28;20041;-53
2023/04/20 02:38:11;;;;;;;0.47;0.35;;;;;;;10.26;72.90;101428.50;5056204;28;20041;-56
2023/04/20 02:40:37;;;;;;;0.30;0.30;;;;;;;10.21;72.87;101434.09;5072186;28;20059;-52
2023/04/20 02:43:03;;;;;;;0.40;0.40;;;;;;;10.28;72.70;101434.34;5071196;28;20024;-57
2023/04/20 02:45:29;;;;;;;0.32;0.32;;;;;;;10.28;72.49;101428.19;5040156;28;20060;-56
2023/04/20 02:47:56;;;;;;;1.15;0.38;;;;;;;10.27;72.38;101435.47;5042622;28;20032;-57
2023/04/20 02:50:23;;;;;;;0.47;0.47;;;;;;;10.14;71.97;101430.38;5064393;28;20031;-53
2023/04/20 02:53:15;;;;;;;1.23;0.70;;;;;;;10.21;72.24;101439.47;5059468;28;20163;-57
2023/04/20 02:55:42;;;;;;;1.08;0.65;;;;;;;10.26;72.27;101438.50;5059941;28;20941;-52
2023/04/20 02:58:20;;;;;;;0.50;0.50;;;;;;;10.09;72.53;101434.03;5054188;28;20037;-54
2023/04/20 03:01:18;;;;;;;0.30;0.30;;;;;;;10.13;72.32;101437.66;5042940;28;20040;-54
2023/04/20 03:03:46;;;;;;;2.20;0.80;;;;;;;10.22;71.66;101437.59;5061365;28;20024;-55
2023/04/20 03:06:12;;;;;;;4.60;0.50;;;;;;;10.29;71.39;101437.81;5080170;28;20025;-55
2023/04/20 03:08:41;;;;;;;1.17;0.60;;;;;;;10.34;71.32;101441.09;5067810;28;20551;-55
2023/04/20 03:11:30;;;;;;;0.35;0.32;;;;;;;10.30;71.58;101442.88;5059619;28;20048;-55
2023/04/20 03:13:56;;;;;;;0.30;0.30;;;;;;;10.17;70.81;101438.56;5061563;28;20028;-54
2023/04/20 03:16:21;;;;;;;0.50;0.50;;;;;;;10.17;71.32;101437.78;5069070;28;20044;-57
2023/04/20 03:18:52;;;;;;;6.65;0.70;;;;;;;10.29;70.99;101429.75;5068225;28;20031;-55
2023/04/20 03:21:18;;;;;;;1.98;0.45;;;;;;;10.38;70.97;101433.13;5067017;28;20057;-55
2023/04/20 03:23:44;;;;;;;0.32;0.32;;;;;;;10.25;71.28;101436.91;5066300;28;20090;-53
2023/04/20 03:26:11;;;;;;;0.82;0.40;;;;;;;10.21;71.20;101439.47;5048418;28;20408;-54
2023/04/20 03:28:55;;;;;;;0.35;0.28;;;;;;;10.23;71.95;101431.06;5059288;28;20123;-51
2023/04/20 03:31:24;;;;;;;0.35;0.22;;;;;;;10.28;72.13;101434.34;5066381;28;20028;-52
2023/04/20 03:33:51;;;;;;;0.20;0.20;;;;;;;10.31;73.36;101443.66;5060544;28;20031;-57
2023/04/20 03:36:17;;;;;;;0.38;0.38;;;;;;;10.20;73.89;101440.59;5052784;28;20108;-52
2023/04/20 03:38:42;;;;;;;0.40;0.40;;;;;;;10.12;75.09;101438.00;5065933;28;20032;-53
2023/04/20 03:41:08;;;;;;;0.80;0.80;;;;;;;10.05;76.22;101441.19;5056104;28;20041;-54
2023/04/20 03:43:33;;;;;;;1.67;0.57;;;;;;;10.01;76.95;101429.50;5061515;28;20059;-51
2023/04/20 03:45:59;;;;;;;0.28;0.28;;;;;;;9.98;77.07;101439.06;5070466;28;21850;-54
2023/04/20 03:48:24;;;;;;;0.43;0.32;;;;;;;10.12;77.00;101438.78;5062013;28;20058;-55
2023/04/20 03:50:51;;;;;;;1.25;0.60;;;;;;;10.08;77.94;101424.41;5072649;28;20029;-53
2023/04/20 03:53:16;;;;;;;1.48;0.57;;;;;;;10.09;78.39;101431.34;5066170;28;20035;-51
2023/04/20 03:55:42;;;;;;;0.43;0.38;;;;;;;10.18;78.16;101429.38;5068457;28;20021;-55
2023/04/20 03:58:11;;;;;;;0.40;0.40;;;;;;;10.13;78.55;101431.50;5083936;28;20036;-53
2023/04/20 04:01:06;;;;;;;3.80;0.95;;;;;;;10.05;79.02;101425.03;5063255;28;20032;-54
2023/04/20 04:03:33;;;;;;;0.60;0.57;;;;;;;9.97;80.16;101428.59;5081045;28;20040;-57
2023/04/20 04:06:01;;;;;;;4.53;0.73;;;;;;;9.96;80.60;101422.47;5073115;28;20435;-54
2023/04/20 04:08:27;;;;;;;0.90;0.45;;;;;;;10.01;80.14;101424.94;5063115;28;20163;-54
2023/04/20 04:10:54;;;;;;;0.50;0.50;;;;;;;9.91;81.17;101419.19;5057785;28;20040;-54
2023/04/20 04:13:19;;;;;;;0.73;0.73;;;;;;;9.88;81.20;101427.91;5064564;28;20425;-53
2023/04/20 04:15:45;;;;;;;0.30;0.30;;;;;;;9.87;81.96;101427.09;5056659;28;20032;-56
2023/04/20 04:18:12;;;;;;;0.52;0.40;;;;;;;9.91;81.81;101424.56;5057387;28;20036;-51
2023/04/20 04:20:39;;;;;;;0.60;0.60;;;;;;;9.94;82.61;101435.44;5048092;28;20089;-57
2023/04/20 04:23:05;;;;;;;0.30;0.30;;;;;;;9.85;82.55;101440.09;5070254;28;20123;-56
2023/04/20 04:25:39;;;;;;;4.25;0.70;;;;;;;9.77;83.22;101441.00;5056364;28;20028;-55
2023/04/20 04:28:06;;;;;;;0.20;0.20;;;;;;;9.72;83.94;101445.75;5073450;28;20032;-55
2023/04/20 04:30:33;;;;;;;0.43;0.22;;;;;;;9.80;83.86;101424.19;5060725;28;20040;-51
2023/04/20 04:32:59;;;;;;;0.60;0.60;;;;;;;9.92;83.44;101444.97;5059050;28;20440;-53
2023/04/20 04:35:29;;;;;;;0.68;0.63;;;;;;;9.88;84.14;101422.53;5067602;28;20121;-55
2023/04/20 04:37:55;;;;;;;0.77;0.50;;;;;;;9.80;84.63;101429.56;5069757;28;20186;-53
2023/04/20 04:40:21;;;;;;;2.95;0.77;;;;;;;9.82;84.55;101429.22;5065913;28;20107;-55
2023/04/20 04:42:51;;;;;;;0.38;0.38;;;;;;;9.86;84.46;101427.44;5062910;28;20036;-57
2023/04/20 04:45:17;;;;;;;5.40;0.77;;;;;;;9.80;84.72;101434.16;5074683;28;20037;-56
2023/04/20 04:47:44;;;;;;;0.38;0.38;;;;;;;9.78;84.91;101437.16;5070952;28;20036;-54
2023/04/20 04:50:10;;;;;;;1.65;0.60;;;;;;;9.69;85.83;101431.09;5054323;28;20032;-56
2023/04/20 04:52:35;;;;;;;1.52;0.85;;;;;;;9.47;86.70;101446.75;5062414;28;20028;-53
2023/04/20 04:55:01;;;;;;;0.43;0.35;;;;;;;9.44;87.45;101431.28;5065627;28;20024;-55
2023/04/20 04:57:27;;;;;;;2.78;0.90;;;;;;;9.38;87.98;101435.28;5067981;28;20041;-54
2023/04/20 04:59:55;;;;;;;0.32;0.32;;;;;;;9.46;87.90;101437.91;5063166;28;20032;-57
2023/04/20 05:02:20;;;;;;;0.38;0.38;;;;;;;9.50;87.87;101435.34;5065635;28;20098;-55
2023/04/20 05:04:46;;;;;;;4.97;1.25;;;;;;;9.44;88.27;101433.97;5068107;28;20040;-56
2023/04/20 05:07:12;;;;;;;0.50;0.50;;;;;;;9.47;88.19;101435.97;5068719;28;20040;-54
2023/04/20 05:09:38;;;;;;;0.35;0.35;;;;;;;9.56;88.40;101439.41;5070454;28;20023;-57
2023/04/20 05:12:05;;;;;;;0.40;0.40;;;;;;;9.59;88.07;101434.16;5069620;28;20155;-57
2023/04/20 05:14:31;;;;;;;0.68;0.60;;;;;;;9.59;88.30;101447.59;5064175;28;20094;-55
2023/04/20 05:16:58;;;;;;;0.82;0.52;;;;;;;9.61;88.57;101452.66;5068360;28;20017;-56
2023/04/20 05:19:23;;;;;;;1.90;0.90;;;;;;;9.70;88.42;101442.59;5063413;28;20028;-56
2023/04/20 05:21:51;;;;;;;0.47;0.47;;;;;;;9.61;87.81;101448.06;5068727;28;20039;-54
2023/04/20 05:24:18;;;;;;;0.93;0.80;;;;;;;9.55;88.19;101438.63;5068702;28;20024;-53
2023/04/20 05:26:44;;;;;;;0.32;0.32;;;;;;;9.53;88.49;101445.44;5068724;28;20135;-52
2023/04/20 05:29:10;;;;;;;0.60;0.60;;;;;;;9.36;89.03;101445.56;5066980;28;20020;-51
2023/04/20 05:31:35;;;;;;;0.52;0.52;;;;;;;9.48;89.18;101448.34;5068974;28;20024;-51
2023/04/20 05:34:01;;;;;;;0.70;0.70;;;;;;;9.52;89.31;101441.19;5068541;28;20037;-56
2023/04/20 05:36:28;;;;;;;0.88;0.60;;;;;;;9.58;89.00;101447.94;5064646;28;20032;-59
2023/04/20 05:38:54;;;;;;;0.57;0.57;;;;;;;9.56;89.12;101448.25;5063661;28;20035;-55
2023/04/20 05:41:25;;;;;;;2.92;1.00;;;;;;;9.52;89.61;101441.97;5055329;28;20395;-54
2023/04/20 05:43:51;;;;;;;0.55;0.55;;;;;;;9.44;90.21;101461.66;5059274;28;20052;-55
2023/04/20 05:46:16;;;;;;;0.77;0.68;;;;;;;9.44;90.52;101458.16;5058918;28;20037;-55
2023/04/20 05:48:42;;;;;;;1.02;0.70;;;;;;;9.43;90.89;101459.25;5061135;28;20055;-54
2023/04/20 05:51:07;;;;;;;1.65;0.80;;;;;;;9.44;90.74;101468.91;5062963;28;20040;-52
2023/04/20 05:53:33;;;;;;;0.38;0.38;;;;;;;9.56;90.19;101463.63;5066160;28;20567;-53
2023/04/20 05:55:58;;;;;;;1.58;0.73;;;;;;;9.52;90.87;101465.38;5066330;28;20113;-53
2023/04/20 05:58:24;;;;;;;0.82;0.82;;;;;;;9.35;91.17;101468.97;5060025;28;20048;-55
2023/04/20 06:01:10;;;;;;;0.93;0.57;;;;;;;9.45;91.25;101465.09;5065342;28;20033;-56
2023/04/20 06:03:38;;;;;;;3.88;0.88;;;;;;;9.57;91.23;101465.19;5060655;28;20080;-56
2023/04/20 06:06:04;;;;;;;0.55;0.55;;;;;;;9.61;91.02;101468.78;5061507;28;20583;-55
2023/04/20 06:08:30;;;;;;;0.68;0.68;;;;;;;9.63;91.28;101459.28;5066323;28;20072;-56
2023/04/20 06:10:56;;;;;;;0.50;0.50;;;;;;;9.68;91.20;101463.66;5063086;28;20137;-55
2023/04/20 06:13:22;;;;;;;0.63;0.60;;;;;;;9.66;91.79;101455.94;5067439;28;20025;-56
2023/04/20 06:15:48;;;;;;;1.10;0.98;;;;;;;9.69;91.55;101463.34;5064027;28;20213;-56
2023/04/20 06:18:14;;;;;;;1.17;0.65;;;;;;;9.66;92.00;101463.19;5059843;28;20036;-54
2023/04/20 06:20:41;;;;;;;1.67;0.98;;;;;;;9.44;92.22;101461.66;5069305;28;20120;-50
2023/04/20 06:23:07;;;;;;;0.57;0.52;;;;;;;9.53;92.40;101467.75;5067431;28;20047;-52
2023/04/20 06:25:35;;;;;;;0.32;0.32;;;;;;;9.58;91.73;101472.91;5059624;28;20119;-56
2023/04/20 06:28:02;;;;;;;2.10;1.05;;;;;;;9.59;92.76;101458.38;5067436;28;20631;-56
2023/04/20 06:30:27;;;;;;;3.60;1.27;;;;;;;9.73;92.12;101458.91;5059263;28;20584;-54
2023/04/20 06:32:53;;;;;;;0.93;0.82;;;;;;;9.70;91.77;101448.78;5064465;28;20028;-56
2023/04/20 06:35:18;;;;;;;1.70;0.88;;;;;;;9.77;92.21;101457.13;5067180;28;20453;-55
2023/04/20 06:37:44;;;;;;;1.05;0.70;;;;;;;9.87;91.99;101461.31;5071999;28;20047;-52
2023/04/20 06:40:09;;;;;;;0.88;0.75;;;;;;;9.85;92.61;101468.94;5063258;28;20475;-57
2023/04/20 06:42:36;;;;;;;0.95;0.57;;;;;;;9.78;92.39;101474.03;5076175;28;20040;-55
2023/04/20 06:45:01;;;;;;;1.92;0.95;;;;;;;9.61;92.73;101468.78;5063118;28;20033;-55
2023/04/20 06:47:30;;;;;;;2.28;0.55;;;;;;;9.70;92.79;101469.50;5068588;28;20043;-55
2023/04/20 06:49:57;;;;;;;0.40;0.40;;;;;;;9.78;92.13;101471.34;5056401;28;20028;-54
2023/04/20 06:52:22;;;;;;;1.80;0.80;;;;;;;9.59;92.90;101477.19;5060433;28;20082;-55
2023/04/20 06:54:48;;;;;;;1.25;0.57;;;;;;;9.64;93.14;101479.66;5062360;28;20032;-51
2023/04/20 06:57:13;;;;;;;0.45;0.40;;;;;;;9.64;93.49;101482.34;5063946;28;20380;-52
2023/04/20 06:59:39;;;;;;;0.38;0.38;;;;;;;9.75;92.98;101477.38;5063057;28;20510;-55
2023/04/20 07:02:04;;;;;;;0.93;0.70;;;;;;;9.87;92.65;101483.59;5062314;28;20048;-52
2023/04/20 07:04:30;;;;;;;0.63;0.63;;;;;;;9.88;92.09;101489.78;5066470;28;20066;-55
2023/04/20 07:06:55;;;;;;;0.57;0.57;;;;;;;9.77;92.65;101485.91;5055226;28;20024;-53
2023/04/20 07:09:21;;;;;;;0.80;0.60;;;;;;;9.71;93.14;101488.03;5050768;28;20029;-52
2023/04/20 07:11:47;;;;;;;0.47;0.47;;;;;;;9.85;92.78;101490.44;5050773;28;20121;-50
2023/04/20 07:14:13;;;;;;;1.25;0.63;;;;;;;9.85;92.58;101479.69;5052542;28;20060;-54
2023/04/20 07:16:38;;;;;;;1.23;0.90;;;;;;;9.84;92.63;101486.16;5055023;28;20081;-55
2023/04/20 07:19:04;;;;;;;1.45;1.27;;;;;;;9.81;92.42;101486.84;5055531;28;20044;-55
2023/04/20 07:21:30;;;;;;;0.65;0.65;;;;;;;9.91;91.58;101497.22;5047979;28;20037;-54
2023/04/20 07:23:57;;;;;;;7.47;0.82;;;;;;;9.92;91.54;101485.31;5063520;28;20693;-54
2023/04/20 07:26:24;;;;;;;0.90;0.57;;;;;;;9.82;92.32;101486.50;5048958;28;20030;-53
2023/04/20 07:28:50;;;;;;;1.25;0.82;;;;;;;9.79;92.39;101492.53;5054926;28;20025;-50
2023/04/20 07:31:16;;;;;;;1.48;0.90;;;;;;;9.84;92.69;101484.28;5065068;28;20044;-53
2023/04/20 07:33:42;;;;;;;1.05;0.75;;;;;;;9.79;92.89;101484.44;5052113;28;20506;-53
2023/04/20 07:36:09;;;;;;;0.52;0.52;;;;;;;9.82;93.05;101491.09;5049209;28;20040;-54
2023/04/20 07:38:35;;;;;;;1.75;0.63;;;;;;;9.82;93.55;101497.25;5053939;28;20040;-53
2023/04/20 07:41:00;;;;;;;0.70;0.70;;;;;;;9.82;93.60;101491.09;5048107;28;20471;-55
2023/04/20 07:43:26;;;;;;;0.73;0.60;;;;;;;9.81;93.95;101501.06;5050048;28;20040;-55
2023/04/20 07:45:51;;;;;;;0.38;0.32;;;;;;;9.78;94.80;101500.94;5039788;28;20123;-51
2023/04/20 07:48:17;;;;;;;1.38;1.05;;;;;;;9.80;94.67;101504.88;5059506;28;20029;-50
2023/04/20 07:50:45;;;;;;;9.73;0.80;;;;;;;9.88;94.43;101512.09;5050395;28;20076;-54
2023/04/20 07:53:11;;;;;;;0.45;0.45;;;;;;;9.81;94.63;101516.44;5061632;28;20410;-53
2023/04/20 07:55:37;;;;;;;0.98;0.77;;;;;;;9.73;94.51;101519.97;5057646;28;20025;-55
2023/04/20 07:58:02;;;;;;;0.57;0.57;;;;;;;9.67;95.11;101524.75;5055910;28;20105;-53
2023/04/20 08:00:28;;;;;;;1.77;0.98;;;;;;;9.56;95.54;101520.84;5048562;28;20041;-53
2023/04/20 08:02:56;;;;;;;1.48;0.55;;;;;;;9.80;94.52;101514.84;5092928;22;20152;-53
2023/04/20 08:05:23;;;;;;;0.50;0.40;;;;;;;9.77;94.12;101521.69;5093193;28;20161;-56
2023/04/20 08:07:48;;;;;;;2.08;0.85;;;;;;;9.70;94.66;101531.34;5093442;28;20059;-55
2023/04/20 08:10:14;;;;;;;0.60;0.50;;;;;;;9.65;94.50;101523.50;5095251;28;21839;-53
2023/04/20 08:12:39;;;;;;;0.68;0.50;;;;;;;9.50;94.93;101518.69;5085330;28;20180;-50
2023/04/20 08:15:06;;;;;;;1.15;0.60;;;;;;;9.57;95.24;101529.72;5085471;28;20036;-54
2023/04/20 08:17:32;;;;;;;0.77;0.77;;;;;;;9.50;95.46;101527.56;5093209;28;20167;-55
2023/04/20 08:19:57;;;;;;;0.70;0.70;;;;;;;9.63;94.70;101537.28;5088768;28;20612;-56
2023/04/20 08:22:25;;;;;;;2.42;0.45;;;;;;;9.67;94.99;101527.44;5090057;28;20118;-56
2023/04/20 08:24:51;;;;;;;0.65;0.57;;;;;;;9.48;94.90;101537.03;5095192;28;20456;-54
2023/04/20 08:27:17;;;;;;;5.43;1.33;;;;;;;9.63;95.37;101536.47;5076437;28;20065;-52
2023/04/20 08:29:42;;;;;;;1.25;0.85;;;;;;;9.72;95.50;101529.13;5083337;28;20765;-55
2023/04/20 08:32:08;;;;;;;1.23;0.68;;;;;;;9.71;95.90;101522.97;5080601;28;20032;-56
2023/04/20 08:34:34;;;;;;;1.85;0.57;;;;;;;9.85;95.49;101522.72;5092470;28;20103;-56
2023/04/20 08:36:59;;;;;;;2.30;0.98;;;;;;;9.95;95.17;101508.84;5089511;28;20028;-58
2023/04/20 08:39:25;;;;;;;0.93;0.82;;;;;;;9.95;95.79;101523.09;5089420;28;20393;-52
2023/04/20 08:41:54;;;;;;;0.63;0.63;;;;;;;9.95;95.36;101531.19;5094050;28;20064;-54
2023/04/20 08:44:20;;;;;;;6.13;0.80;;;;;;;10.04;95.44;101536.50;5095311;28;20036;-53
2023/04/20 08:46:47;;;;;;;0.57;0.40;;;;;;;9.99;95.82;101534.00;5101507;28;20028;-55
2023/04/20 08:49:16;;;;;;;1.20;0.60;;;;;;;10.12;95.98;101521.44;5097548;28;20035;-50
2023/04/20 08:51:43;;;;;;;0.75;0.73;;;;;;;10.28;96.10;101519.72;5098942;28;20035;-55
2023/04/20 08:54:10;;;;;;;0.55;0.55;;;;;;;10.33;95.91;101517.59;5096623;27;20042;-54
2023/04/20 08:56:37;;;;;;;1.38;0.70;;;;;;;10.25;96.38;101525.75;5105165;28;20028;-55
2023/04/20 08:59:09;;;;;;;2.88;1.05;;;;;;;10.29;95.53;101532.03;5109571;28;20031;-53
2023/04/20 09:01:35;;;;;;;;;;;;;;;10.36;94.68;101532.28;5100936;28;20031;-57
2023/04/20 09:04:00;;;;;;;1.05;0.95;;;;;;;10.40;95.57;101536.69;5097837;28;19916;-54
2023/04/20 09:06:26;;;;;;;0.82;0.65;;;;;;;10.56;94.95;101536.84;5101570;28;20024;-53
2023/04/20 09:08:53;;;;;;;0.85;0.55;;;;;;;10.54;95.04;101539.88;5104604;28;20102;-56
2023/04/20 09:11:26;;;;;;;1.30;0.88;;;;;;;10.43;95.14;101532.53;5101802;28;20027;-51
2023/04/20 09:14:02;;;;;;;1.38;0.70;;;;;;;10.34;94.39;101538.00;5105076;28;20061;-56
2023/04/20 09:16:28;;;;;;;0.65;0.60;;;;;;;10.38;94.79;101538.13;5102192;28;20039;-55
2023/04/20 09:18:55;;;;;;;0.80;0.70;;;;;;;10.48;94.80;101537.72;5102686;28;20167;-55
2023/04/20 09:21:22;;;;;;;3.45;1.30;;;;;;;10.44;95.13;101550.25;5100594;28;20032;-52
2023/04/20 09:24:05;;;;;;;1.25;0.73;;;;;;;10.52;95.19;101546.69;5100305;28;20035;-53
2023/04/20 09:26:35;;;;;;;1.92;0.98;;;;;;;10.62;94.63;101559.75;5087885;28;20028;-54
2023/04/20 09:29:03;;;;;;;2.25;1.10;;;;;;;10.70;94.66;101566.97;5097124;28;20498;-55
2023/04/20 09:31:29;;;;;;;1.85;1.08;;;;;;;10.67;94.72;101563.03;5091272;28;20039;-55
2023/04/20 09:34:02;;;;;;;2.10;0.85;;;;;;;10.54;94.70;101555.25;5105027;27;20405;-55
2023/04/20 09:36:50;;;;;;;2.38;0.85;;;;;;;10.57;94.52;101552.66;5105493;28;20386;-55
2023/04/20 09:39:18;;;;;;;1.30;1.13;;;;;;;10.50;95.03;101533.56;5103431;28;20050;-52
2023/04/20 09:41:45;;;;;;;1.98;0.90;;;;;;;10.57;95.00;101535.72;5105208;28;20070;-56
2023/04/20 09:44:11;;;;;;;3.47;1.30;;;;;;;10.64;95.61;101533.28;5097947;28;20075;-55
2023/04/20 09:46:39;;;;;;;0.85;0.75;;;;;;;10.75;96.32;101535.22;5106061;28;20023;-54
2023/04/20 09:49:07;;;;;;;1.23;0.80;;;;;;;10.79;96.17;101533.44;5090398;27;20038;-53
2023/04/20 09:51:35;;;;;;;1.58;1.10;;;;;;;10.98;96.78;101532.88;5094775;27;20051;-53
2023/04/20 09:54:02;;;;;;;2.30;1.38;;;;;;;11.31;96.10;101540.88;5107877;28;20023;-57
2023/04/20 09:56:29;;;;;;;0.65;0.65;;;;;;;11.47;96.68;101537.19;5101780;28;20081;-54
2023/04/20 09:58:57;;;;;;;6.00;1.30;;;;;;;11.64;96.15;101549.63;5100964;28;20111;-55
2023/04/20 10:01:23;;;;;;;3.50;1.50;;;;;;;11.78;95.94;101556.28;5107099;28;20032;-52
2023/04/20 10:03:52;;;;;;;2.15;1.00;;;;;;;11.87;93.69;101563.44;5102199;28;20147;-55
2023/04/20 10:06:29;;;;;;;3.30;0.88;;;;;;;11.81;92.64;101570.22;5098173;28;20043;-57
2023/04/20 10:08:55;;;;;;;1.17;1.08;;;;;;;11.83;92.30;101568.72;5093103;28;20438;-55
2023/04/20 10:11:35;;;;;;;1.67;0.93;;;;;;;11.90;91.53;101571.66;5107639;28;20054;-55
2023/04/20 10:14:16;;;;;;;2.40;1.35;;;;;;;11.72;91.46;101571.13;5097901;28;20031;-52
2023/04/20 10:16:42;;;;;;;;;;;;;;;11.71;91.16;101571.47;5106726;28;20133;-54
2023/04/20 10:19:08;;;;;;;1.42;1.17;;;;;;;11.74;91.32;101574.28;5092103;28;19911;-52
2023/04/20 10:21:48;;;;;;;1.02;0.90;;;;;;;11.68;91.85;101566.75;5093879;28;20035;-57
2023/04/20 10:24:14;;;;;;;1.45;0.80;;;;;;;11.55;91.22;101578.63;5100391;28;20066;-54
2023/04/20 10:26:43;;;;;;;1.02;0.60;;;;;;;11.35;92.65;101576.84;5102095;28;20081;-54
2023/04/20 10:29:12;;;;;;;3.40;1.08;;;;;;;11.50;92.29;101576.16;5093022;28;20172;-57
2023/04/20 10:31:39;;;;;;;1.92;0.98;;;;;;;11.49;93.27;101575.38;5094227;28;20055;-53
2023/04/20 10:34:06;;;;;;;1.40;0.85;;;;;;;11.54;92.79;101566.25;5108118;28;20016;-56
2023/04/20 10:36:37;;;;;;;0.80;0.80;;;;;;;11.72;92.14;101559.53;5105834;28;20078;-55
2023/04/20 10:39:36;;;;;;;1.08;0.65;;;;;;;11.68;92.56;101564.03;5109775;28;20056;-55
2023/04/20 10:42:02;;;;;;;5.90;1.25;;;;;;;11.74;92.54;101570.78;5080477;28;20484;-54
2023/04/20 10:44:29;;;;;;;1.67;0.90;;;;;;;11.59;92.65;101564.13;5107388;28;20071;-54
2023/04/20 10:46:55;;;;;;;2.85;1.20;;;;;;;11.86;91.95;101562.66;5091546;28;20466;-54
2023/04/20 10:49:25;;;;;;;2.40;0.90;;;;;;;11.78;92.44;101561.69;5098779;28;20064;-54
2023/04/20 10:51:52;;;;;;;1.42;1.33;;;;;;;11.77;93.08;101562.78;5101694;28;20035;-55
2023/04/20 10:54:20;;;;;;;0.80;0.73;;;;;;;11.86;92.87;101562.66;5098051;28;20031;-55
2023/04/20 10:56:48;;;;;;;1.00;0.90;;;;;;;11.90;92.07;101554.66;5100690;28;20028;-55
2023/04/20 10:59:14;;;;;;;1.45;1.08;;;;;;;11.96;91.72;101553.31;5092868;28;20492;-55
2023/04/20 11:01:40;;;;;;;0.60;0.60;;;;;;;11.78;91.56;101545.47;5102606;28;20417;-53
2023/04/20 11:04:09;;;;;;;1.92;1.20;;;;;;;11.79;92.72;101554.34;5103484;28;20039;-56
2023/04/20 11:06:36;;;;;;;1.35;1.25;;;;;;;11.79;91.98;101546.25;5103331;28;20051;-55
2023/04/20 11:09:02;;;;;;;2.15;0.90;;;;;;;11.68;92.77;101551.34;5097095;28;20020;-54
2023/04/20 11:11:28;;;;;;;1.48;0.70;;;;;;;11.63;92.50;101548.06;5095301;28;20096;-56
2023/04/20 11:14:10;;;;;;;3.15;0.98;;;;;;;11.66;92.81;101553.59;5092739;28;20028;-54
2023/04/20 11:16:36;;;;;;;0.60;0.60;;;;;;;11.73;93.06;101553.78;5089092;28;20039;-53
2023/04/20 11:19:05;;;;;;;1.30;0.57;;;;;;;11.76;92.45;101546.94;5104947;28;20051;-53
2023/04/20 11:21:41;;;;;;;1.85;0.88;;;;;;;11.77;92.97;101549.28;5098053;28;20040;-54
2023/04/20 11:24:20;;;;;;;1.20;0.88;;;;;;;11.73;92.29;101553.78;5101823;28;20143;-51
2023/04/20 11:26:49;;;;;;;2.47;1.27;;;;;;;11.65;91.93;101551.22;5105974;28;20474;-55
2023/04/20 11:29:38;;;;;;;1.00;0.82;;;;;;;11.50;92.28;101551.88;5107456;28;20461;-50
2023/04/20 11:32:05;;;;;;;4.78;0.98;;;;;;;11.38;92.38;101557.28;5102804;28;20031;-50